Imagination — C6FN2 — position and weather

sailwx.info

Track history (hours):
 
Tides and Currents Weather Stations Pressure Air Temp Water Temp Dewpoint Dewpoint Depression Visibility Wind Speed Wind Dir Waves Ship Positions

Imagination

Operator: Carnival Cruise Lines

Last reported at 2017-Jan-20 10:33 UTC. Time now 2017-Jan-21 04:27 UTC.
Position N 32°17' W 117°33'.

Type: Ship. MMSI: 309933000.

Date/timePositionNaut miles runAvg speedWind from/ knotsBaromVisibWave heightAir tempDewpointWater temp
2017-Jan-20 10:33N 32°17' W 117°33'1212.0
2017-Jan-20 09:33N 32°27' W 117°40'3 5.4
2017-Jan-20 09:00N 32°30' W 117°42'921.4 250 / 131015.210.8 13.0 9.415.7
2017-Jan-20 08:33N 32°38' W 117°48'1212.0
2017-Jan-20 07:34N 32°50' W 117°48'1211.5
2017-Jan-20 06:34N 33°00' W 117°55'610.6
2017-Jan-20 06:00N 33°06' W 117°54'715.7 240 / 221016.210.8 14.010.515.7
2017-Jan-20 05:34N 33°10' W 118°01'1010.4
2017-Jan-20 04:33N 33°19' W 118°06'1110.9
2017-Jan-20 03:33N 33°29' W 118°11'16 1.2
2017-Jan-19 14:06N 33°45' W 118°11'0 0.7
2017-Jan-19 13:33N 33°45' W 118°11'7 6.8
2017-Jan-19 12:33N 33°38' W 118°10'7 7.1
2017-Jan-19 11:33N 33°31' W 118°08'7 7.1
2017-Jan-19 10:33N 33°25' W 118°05'7 6.8
2017-Jan-19 09:33N 33°18' W 118°02'7 7.1
2017-Jan-19 08:33N 33°11' W 117°59'7 7.2
2017-Jan-19 07:33N 33°05' W 117°56'7 6.9
2017-Jan-19 06:33N 32°58' W 117°53'610.5
2017-Jan-19 06:00N 32°54' W 117°48'3 6.5 150 / 131023.310.8 13.0 7.416.0
2017-Jan-19 05:33N 32°52' W 117°50'7 7.5
2017-Jan-19 04:33N 32°44' W 117°49'7 7.4
2017-Jan-19 03:33N 32°37' W 117°48'8 7.7
2017-Jan-19 02:33N 32°29' W 117°49'4 3.6
2017-Jan-19 01:33N 32°26' W 117°49'2 1.6
2017-Jan-19 00:33N 32°26' W 117°47'2 1.8
2017-Jan-18 23:33N 32°28' W 117°48'1 1.0
2017-Jan-18 22:33N 32°28' W 117°48'6 5.5
2017-Jan-18 21:33N 32°25' W 117°44'7 7.4
2017-Jan-18 20:33N 32°19' W 117°38'7 7.2
2017-Jan-18 19:33N 32°12' W 117°36'13 8.4
2017-Jan-18 18:00N 32°00' W 117°30'3011.0 290 / 61026.310.8 16.0 8.815.9
2017-Jan-18 15:15N 31°46' W 118°01'5 6.6
2017-Jan-18 14:33N 31°45' W 118°06'3 4.5
2017-Jan-18 14:00N 31°42' W 118°06'6 7.9 280 / 31024.310.8 14.010.516.4
2017-Jan-18 13:16N 31°39' W 118°12'5 6.3
2017-Jan-18 12:24N 31°35' W 118°07'54 8.4
2017-Jan-18 06:00N 31°48' W 117°06'11 0.6 320 / 151024.310.8 14.010.516.8
2017-Jan-17 11:31N 31°59' W 117°07'7 7.6
2017-Jan-17 10:33N 32°02' W 117°14'8 8.2
2017-Jan-17 09:33N 32°07' W 117°21'3 4.5
2017-Jan-17 09:00N 32°06' W 117°24'1020.6 010 / 81021.310.8 14.012.315.9
2017-Jan-17 08:32N 32°14' W 117°30'10 9.8
2017-Jan-17 07:33N 32°21' W 117°38'10 9.8
2017-Jan-17 06:33N 32°30' W 117°42'0 0.7
2017-Jan-17 06:00N 32°30' W 117°42'1024.0 340 / 71021.310.8 14.010.515.6
2017-Jan-17 05:33N 32°39' W 117°49'1010.4
2017-Jan-17 04:33N 32°48' W 117°55'1010.3
2017-Jan-17 03:33N 32°57' W 118°01'1010.4
2017-Jan-17 02:33N 33°06' W 118°07'1010.1
2017-Jan-17 01:33N 33°15' W 118°12'8 8.3
2017-Jan-17 00:33N 33°21' W 118°19'0 0.1
2017-Jan-16 23:33N 33°21' W 118°19'0 0.0
2017-Jan-16 22:33N 33°21' W 118°19'0 0.0
2017-Jan-16 21:29N 33°21' W 118°19'0 0.1
2017-Jan-16 20:32N 33°21' W 118°19'0 0.0
2017-Jan-16 19:28N 33°21' W 118°19'0 0.1
2017-Jan-16 18:28N 33°21' W 118°19'0 0.1
2017-Jan-16 17:27N 33°21' W 118°19'0 0.0
2017-Jan-16 16:09N 33°21' W 118°19'0 0.0
2017-Jan-16 15:26N 33°21' W 118°19'2 2.8
2017-Jan-16 14:33N 33°19' W 118°17'6 6.1
2017-Jan-16 13:33N 33°13' W 118°17'6 6.4
2017-Jan-16 12:33N 33°07' W 118°16'6 6.1
2017-Jan-16 11:33N 33°02' W 118°12'6 6.3
2017-Jan-16 10:33N 32°58' W 118°06'5 5.3
2017-Jan-16 09:33N 32°57' W 118°00'610.1
2017-Jan-16 09:00N 33°00' W 117°54'410.3 180 / 101021.310.8 13.0 9.415.8
2017-Jan-16 08:33N 33°03' W 117°58'6 6.4
2017-Jan-16 07:33N 33°09' W 118°01'6 6.4
2017-Jan-16 06:33N 33°15' W 118°03'4 7.2
2017-Jan-16 06:00N 33°18' W 118°00'614.2 160 / 81022.310.8 13.0 7.415.8
2017-Jan-16 05:33N 33°21' W 118°07'6 6.4
2017-Jan-16 04:33N 33°27' W 118°09'6 6.4
2017-Jan-16 03:33N 33°33' W 118°12'9 8.5
2017-Jan-16 02:33N 33°41' W 118°12'4 0.3
2017-Jan-15 13:33N 33°45' W 118°11'6 6.3
2017-Jan-15 12:33N 33°39' W 118°10'7 6.5
2017-Jan-15 11:33N 33°32' W 118°08'6 6.4
2017-Jan-15 10:33N 33°26' W 118°06'7 6.6
2017-Jan-15 09:33N 33°20' W 118°03'814.9
2017-Jan-15 09:00N 33°12' W 118°00'2 4.8 210 / 41019.310.8 15.013.315.7
2017-Jan-15 08:33N 33°14' W 117°60'7 6.6
2017-Jan-15 07:33N 33°08' W 117°57'1628.0
2017-Jan-15 07:00N 32°54' W 117°48'921.9 280 / 71019.310.8 15.011.615.8
2017-Jan-15 06:33N 33°02' W 117°54'7 6.5
2017-Jan-15 05:33N 32°56' W 117°51'6 6.4
2017-Jan-15 04:33N 32°50' W 117°49'7 6.6
2017-Jan-15 03:33N 32°43' W 117°49'7 6.7
2017-Jan-15 02:33N 32°37' W 117°48'6 6.4
2017-Jan-15 01:33N 32°30' W 117°47'4 3.9
2017-Jan-15 00:33N 32°27' W 117°44'1 1.0
2017-Jan-14 23:33N 32°28' W 117°45'2 1.5
2017-Jan-14 22:33N 32°28' W 117°47'4 4.5
2017-Jan-14 21:33N 32°25' W 117°44'9 8.8
2017-Jan-14 20:33N 32°18' W 117°37'10 9.3
2017-Jan-14 19:32N 32°08' W 117°37'30 8.5
2017-Jan-14 16:00N 31°42' W 117°54'20 2.9 320 / 61020.310.8 13.0 9.416.0
2017-Jan-14 09:00N 31°42' W 117°30'21 7.1 330 / 91020.310.8 12.0 6.216.1
2017-Jan-14 06:00N 31°48' W 117°06'21 1.2 330 / 111020.310.8 12.0 8.316.3
2017-Jan-13 11:32N 32°06' W 117°20'1211.9
2017-Jan-13 10:33N 32°13' W 117°31'1212.4
2017-Jan-13 09:33N 32°20' W 117°43'1312.8
2017-Jan-13 08:33N 32°33' W 117°47'1212.4
2017-Jan-13 07:33N 32°45' W 117°49'1212.1
2017-Jan-13 06:33N 32°57' W 117°52'4 6.8
2017-Jan-13 06:00N 33°00' W 117°54'818.5 290 / 141018.210.8 13.011.316.1
2017-Jan-13 05:33N 33°07' W 117°58'1212.3
2017-Jan-13 04:33N 33°18' W 118°05'1312.4
2017-Jan-13 03:32N 33°30' W 118°11'1111.6
2017-Jan-13 02:33N 33°41' W 118°11'4 0.3
2017-Jan-12 13:24N 33°45' W 118°11'6 7.5
2017-Jan-12 12:33N 33°39' W 118°10'7 7.0
2017-Jan-12 11:33N 33°32' W 118°08'7 6.9
2017-Jan-12 10:34N 33°25' W 118°05'7 7.1
2017-Jan-12 09:34N 33°19' W 118°02'712.4
2017-Jan-12 09:00N 33°12' W 118°00'1 1.7 220 / 71019.310.8 14.010.515.7
2017-Jan-12 08:34N 33°12' W 117°59'7 6.7
2017-Jan-12 07:33N 33°06' W 117°56'7 6.6
2017-Jan-12 06:34N 33°00' W 117°53'713.2
2017-Jan-12 06:00N 32°54' W 117°48'2 4.1 300 / 101020.310.8 14.010.516.1
2017-Jan-12 05:33N 32°54' W 117°50'7 6.6
2017-Jan-12 04:34N 32°48' W 117°49'7 7.3
2017-Jan-12 03:33N 32°40' W 117°48'8 7.6
2017-Jan-12 02:33N 32°33' W 117°48'7 6.6
2017-Jan-12 01:34N 32°26' W 117°46'7 7.0
2017-Jan-12 00:34N 32°21' W 117°40'2810.7
2017-Jan-11 22:00N 31°54' W 117°36'19 4.9 210 / 141021.3 5.4 18.014.816.3
2017-Jan-11 18:00N 31°42' W 117°54'6 7.7 230 / 111022.310.8 16.012.716.8
2017-Jan-11 17:14N 31°45' W 117°60'5 6.9
2017-Jan-11 16:34N 31°46' W 118°05'35 4.6
2017-Jan-11 09:00N 31°42' W 117°24'16 5.5 310 / 131025.310.8 15.0 9.716.4
2017-Jan-11 06:00N 31°48' W 117°06'   330 / 161023.310.8 15.011.616.9
Track history (hours):
 
Tides and Currents Weather Stations Pressure Air Temp Water Temp Dewpoint Dewpoint Depression Visibility Wind Speed Wind Dir Waves Ship Positions

Imagination

Operator: Carnival Cruise Lines

Last reported at 2017-Jan-20 10:33 UTC. Time now 2017-Jan-21 04:27 UTC.
Position N 32°17' W 117°33'.

Type: Ship. MMSI: 309933000.

Date/timePositionNaut miles runAvg speedWind from/ knotsBaromVisibWave heightAir tempDewpointWater temp
2017-Jan-20 10:33N 32°17' W 117°33'1212.0
2017-Jan-20 09:33N 32°27' W 117°40'3 5.4
2017-Jan-20 09:00N 32°30' W 117°42'921.4 250 / 131015.210.8 13.0 9.415.7
2017-Jan-20 08:33N 32°38' W 117°48'1212.0
2017-Jan-20 07:34N 32°50' W 117°48'1211.5
2017-Jan-20 06:34N 33°00' W 117°55'610.6
2017-Jan-20 06:00N 33°06' W 117°54'715.7 240 / 221016.210.8 14.010.515.7
2017-Jan-20 05:34N 33°10' W 118°01'1010.4
2017-Jan-20 04:33N 33°19' W 118°06'1110.9
2017-Jan-20 03:33N 33°29' W 118°11'16 1.2
2017-Jan-19 14:06N 33°45' W 118°11'0 0.7
2017-Jan-19 13:33N 33°45' W 118°11'7 6.8
2017-Jan-19 12:33N 33°38' W 118°10'7 7.1
2017-Jan-19 11:33N 33°31' W 118°08'7 7.1
2017-Jan-19 10:33N 33°25' W 118°05'7 6.8
2017-Jan-19 09:33N 33°18' W 118°02'7 7.1
2017-Jan-19 08:33N 33°11' W 117°59'7 7.2
2017-Jan-19 07:33N 33°05' W 117°56'7 6.9
2017-Jan-19 06:33N 32°58' W 117°53'610.5
2017-Jan-19 06:00N 32°54' W 117°48'3 6.5 150 / 131023.310.8 13.0 7.416.0
2017-Jan-19 05:33N 32°52' W 117°50'7 7.5
2017-Jan-19 04:33N 32°44' W 117°49'7 7.4
2017-Jan-19 03:33N 32°37' W 117°48'8 7.7
2017-Jan-19 02:33N 32°29' W 117°49'4 3.6
2017-Jan-19 01:33N 32°26' W 117°49'2 1.6
2017-Jan-19 00:33N 32°26' W 117°47'2 1.8
2017-Jan-18 23:33N 32°28' W 117°48'1 1.0
2017-Jan-18 22:33N 32°28' W 117°48'6 5.5
2017-Jan-18 21:33N 32°25' W 117°44'7 7.4
2017-Jan-18 20:33N 32°19' W 117°38'7 7.2
2017-Jan-18 19:33N 32°12' W 117°36'13 8.4
2017-Jan-18 18:00N 32°00' W 117°30'3011.0 290 / 61026.310.8 16.0 8.815.9
2017-Jan-18 15:15N 31°46' W 118°01'5 6.6
2017-Jan-18 14:33N 31°45' W 118°06'3 4.5
2017-Jan-18 14:00N 31°42' W 118°06'6 7.9 280 / 31024.310.8 14.010.516.4
2017-Jan-18 13:16N 31°39' W 118°12'5 6.3
2017-Jan-18 12:24N 31°35' W 118°07'54 8.4
2017-Jan-18 06:00N 31°48' W 117°06'11 0.6 320 / 151024.310.8 14.010.516.8
2017-Jan-17 11:31N 31°59' W 117°07'7 7.6
2017-Jan-17 10:33N 32°02' W 117°14'8 8.2
2017-Jan-17 09:33N 32°07' W 117°21'3 4.5
2017-Jan-17 09:00N 32°06' W 117°24'1020.6 010 / 81021.310.8 14.012.315.9
2017-Jan-17 08:32N 32°14' W 117°30'10 9.8
2017-Jan-17 07:33N 32°21' W 117°38'10 9.8
2017-Jan-17 06:33N 32°30' W 117°42'0 0.7
2017-Jan-17 06:00N 32°30' W 117°42'1024.0 340 / 71021.310.8 14.010.515.6
2017-Jan-17 05:33N 32°39' W 117°49'1010.4
2017-Jan-17 04:33N 32°48' W 117°55'1010.3
2017-Jan-17 03:33N 32°57' W 118°01'1010.4
2017-Jan-17 02:33N 33°06' W 118°07'1010.1
2017-Jan-17 01:33N 33°15' W 118°12'8 8.3
2017-Jan-17 00:33N 33°21' W 118°19'0 0.1
2017-Jan-16 23:33N 33°21' W 118°19'0 0.0
2017-Jan-16 22:33N 33°21' W 118°19'0 0.0
2017-Jan-16 21:29N 33°21' W 118°19'0 0.1
2017-Jan-16 20:32N 33°21' W 118°19'0 0.0
2017-Jan-16 19:28N 33°21' W 118°19'0 0.1
2017-Jan-16 18:28N 33°21' W 118°19'0 0.1
2017-Jan-16 17:27N 33°21' W 118°19'0 0.0
2017-Jan-16 16:09N 33°21' W 118°19'0 0.0
2017-Jan-16 15:26N 33°21' W 118°19'2 2.8
2017-Jan-16 14:33N 33°19' W 118°17'6 6.1
2017-Jan-16 13:33N 33°13' W 118°17'6 6.4
2017-Jan-16 12:33N 33°07' W 118°16'6 6.1
2017-Jan-16 11:33N 33°02' W 118°12'6 6.3
2017-Jan-16 10:33N 32°58' W 118°06'5 5.3
2017-Jan-16 09:33N 32°57' W 118°00'610.1
2017-Jan-16 09:00N 33°00' W 117°54'410.3 180 / 101021.310.8 13.0 9.415.8
2017-Jan-16 08:33N 33°03' W 117°58'6 6.4
2017-Jan-16 07:33N 33°09' W 118°01'6 6.4
2017-Jan-16 06:33N 33°15' W 118°03'4 7.2
2017-Jan-16 06:00N 33°18' W 118°00'614.2 160 / 81022.310.8 13.0 7.415.8
2017-Jan-16 05:33N 33°21' W 118°07'6 6.4
2017-Jan-16 04:33N 33°27' W 118°09'6 6.4
2017-Jan-16 03:33N 33°33' W 118°12'9 8.5
2017-Jan-16 02:33N 33°41' W 118°12'4 0.3
2017-Jan-15 13:33N 33°45' W 118°11'6 6.3
2017-Jan-15 12:33N 33°39' W 118°10'7 6.5
2017-Jan-15 11:33N 33°32' W 118°08'6 6.4
2017-Jan-15 10:33N 33°26' W 118°06'7 6.6
2017-Jan-15 09:33N 33°20' W 118°03'814.9
2017-Jan-15 09:00N 33°12' W 118°00'2 4.8 210 / 41019.310.8 15.013.315.7
2017-Jan-15 08:33N 33°14' W 117°60'7 6.6
2017-Jan-15 07:33N 33°08' W 117°57'1628.0
2017-Jan-15 07:00N 32°54' W 117°48'921.9 280 / 71019.310.8 15.011.615.8
2017-Jan-15 06:33N 33°02' W 117°54'7 6.5
2017-Jan-15 05:33N 32°56' W 117°51'6 6.4
2017-Jan-15 04:33N 32°50' W 117°49'7 6.6
2017-Jan-15 03:33N 32°43' W 117°49'7 6.7
2017-Jan-15 02:33N 32°37' W 117°48'6 6.4
2017-Jan-15 01:33N 32°30' W 117°47'4 3.9
2017-Jan-15 00:33N 32°27' W 117°44'1 1.0
2017-Jan-14 23:33N 32°28' W 117°45'2 1.5
2017-Jan-14 22:33N 32°28' W 117°47'4 4.5
2017-Jan-14 21:33N 32°25' W 117°44'9 8.8
2017-Jan-14 20:33N 32°18' W 117°37'10 9.3
2017-Jan-14 19:32N 32°08' W 117°37'30 8.5
2017-Jan-14 16:00N 31°42' W 117°54'20 2.9 320 / 61020.310.8 13.0 9.416.0
2017-Jan-14 09:00N 31°42' W 117°30'21 7.1 330 / 91020.310.8 12.0 6.216.1
2017-Jan-14 06:00N 31°48' W 117°06'21 1.2 330 / 111020.310.8 12.0 8.316.3
2017-Jan-13 11:32N 32°06' W 117°20'1211.9
2017-Jan-13 10:33N 32°13' W 117°31'1212.4
2017-Jan-13 09:33N 32°20' W 117°43'1312.8
2017-Jan-13 08:33N 32°33' W 117°47'1212.4
2017-Jan-13 07:33N 32°45' W 117°49'1212.1
2017-Jan-13 06:33N 32°57' W 117°52'4 6.8
2017-Jan-13 06:00N 33°00' W 117°54'818.5 290 / 141018.210.8 13.011.316.1
2017-Jan-13 05:33N 33°07' W 117°58'1212.3
2017-Jan-13 04:33N 33°18' W 118°05'1312.4
2017-Jan-13 03:32N 33°30' W 118°11'1111.6
2017-Jan-13 02:33N 33°41' W 118°11'4 0.3
2017-Jan-12 13:24N 33°45' W 118°11'6 7.5
2017-Jan-12 12:33N 33°39' W 118°10'7 7.0
2017-Jan-12 11:33N 33°32' W 118°08'7 6.9
2017-Jan-12 10:34N 33°25' W 118°05'7 7.1
2017-Jan-12 09:34N 33°19' W 118°02'712.4
2017-Jan-12 09:00N 33°12' W 118°00'1 1.7 220 / 71019.310.8 14.010.515.7
2017-Jan-12 08:34N 33°12' W 117°59'7 6.7
2017-Jan-12 07:33N 33°06' W 117°56'7 6.6
2017-Jan-12 06:34N 33°00' W 117°53'713.2
2017-Jan-12 06:00N 32°54' W 117°48'2 4.1 300 / 101020.310.8 14.010.516.1
2017-Jan-12 05:33N 32°54' W 117°50'7 6.6
2017-Jan-12 04:34N 32°48' W 117°49'7 7.3
2017-Jan-12 03:33N 32°40' W 117°48'8 7.6
2017-Jan-12 02:33N 32°33' W 117°48'7 6.6
2017-Jan-12 01:34N 32°26' W 117°46'7 7.0
2017-Jan-12 00:34N 32°21' W 117°40'2810.7
2017-Jan-11 22:00N 31°54' W 117°36'19 4.9 210 / 141021.3 5.4 18.014.816.3
2017-Jan-11 18:00N 31°42' W 117°54'6 7.7 230 / 111022.310.8 16.012.716.8
2017-Jan-11 17:14N 31°45' W 117°60'5 6.9
2017-Jan-11 16:34N 31°46' W 118°05'35 4.6
2017-Jan-11 09:00N 31°42' W 117°24'16 5.5 310 / 131025.310.8 15.0 9.716.4
2017-Jan-11 06:00N 31°48' W 117°06'   330 / 161023.310.8 15.011.616.9

Dump ship's entire track history